Time;durP1;ratioP1;P1;durP2;ratioP2;P2;SDS_P1;SDS_P2;PMS_P1;PMS_P2;Temp;Humidity;BMP_temperature;BMP_pressure;BME280_temperature;BME280_humidity;BME280_pressure;Samples;Min_cycle;Max_cycle;Signal;HPM_P1;HPM_P2
2021/09/03 00:00:11;;;;;;;;;17.00;16.25;;;;;21.91;51.24;101666.22;5045179;28;45322;-88
2021/09/03 00:02:38;;;;;;;;;20.00;16.75;;;;;21.88;51.29;101671.44;5023674;28;45310;-85
2021/09/03 00:05:06;;;;;;;;;21.00;18.00;;;;;21.86;51.50;101662.66;5040422;28;45038;-86
2021/09/03 00:07:32;;;;;;;;;18.50;18.00;;;;;21.82;51.68;101666.13;5034190;28;45362;-90
2021/09/03 00:09:58;;;;;;;;;20.25;19.50;;;;;21.78;51.39;101667.84;5018080;28;45243;-89
2021/09/03 00:12:23;;;;;;;;;21.50;17.25;;;;;21.77;51.65;101663.44;5033235;28;45874;-90
2021/09/03 00:14:49;;;;;;;;;20.00;18.00;;;;;21.75;51.58;101667.78;5031812;28;45446;-89
2021/09/03 00:17:15;;;;;;;;;19.50;17.75;;;;;21.73;51.91;101666.88;5036423;28;45468;-89
2021/09/03 00:19:41;;;;;;;;;20.00;17.25;;;;;21.69;51.92;101662.47;5035093;28;45249;-89
2021/09/03 00:22:07;;;;;;;;;18.25;17.00;;;;;21.66;51.95;101659.78;5026753;28;45506;-89
2021/09/03 00:24:33;;;;;;;;;21.50;20.00;;;;;21.63;51.75;101654.47;5017546;28;45263;-89
2021/09/03 00:26:58;;;;;;;;;18.75;18.50;;;;;21.60;52.53;101657.94;5035727;28;45612;-89
2021/09/03 00:29:24;;;;;;;;;21.25;18.00;;;;;21.59;52.09;101650.91;5044322;28;45487;-89
2021/09/03 00:31:50;;;;;;;;;20.75;16.75;;;;;21.56;52.24;101649.97;5048122;28;45759;-89
2021/09/03 00:34:15;;;;;;;;;16.75;16.50;;;;;21.54;52.40;101647.31;5031590;28;45235;-89
2021/09/03 00:36:46;;;;;;;;;18.75;17.25;;;;;21.55;52.24;101648.19;5043104;28;45367;-89
2021/09/03 00:39:12;;;;;;;;;20.75;19.25;;;;;21.53;52.56;101648.19;5027970;28;45409;-88
2021/09/03 00:41:38;;;;;;;;;22.75;21.25;;;;;21.47;52.12;101642.81;5024345;28;45424;-89
2021/09/03 00:44:03;;;;;;;;;24.25;21.75;;;;;21.44;52.62;101641.03;5024491;28;45440;-89
2021/09/03 00:46:29;;;;;;;;;26.00;21.00;;;;;21.40;52.62;101638.34;5016119;28;45175;-89
2021/09/03 00:48:56;;;;;;;;;21.00;17.75;;;;;21.36;53.05;101633.88;5016572;28;45555;-88
2021/09/03 00:51:22;;;;;;;;;20.25;19.25;;;;;21.33;52.60;101629.47;5028312;28;46021;-89
2021/09/03 00:53:48;;;;;;;;;25.75;20.75;;;;;21.33;52.76;101632.09;5036197;28;45318;-89
2021/09/03 00:56:14;;;;;;;;;22.50;19.00;;;;;21.30;52.83;101626.78;5037425;28;45326;-89
2021/09/03 00:58:40;;;;;;;;;21.25;18.50;;;;;21.27;53.42;101621.50;5026312;28;45497;-88
2021/09/03 01:01:06;;;;;;;;;23.00;21.00;;;;;21.25;52.88;101613.56;5024030;28;45342;-90
2021/09/03 01:03:32;;;;;;;;;23.25;19.00;;;;;21.23;53.09;101615.28;5034124;28;45325;-89
2021/09/03 01:06:02;;;;;;;;;20.50;18.00;;;;;21.20;53.49;101620.53;5034881;28;45596;-88
2021/09/03 01:08:28;;;;;;;;;23.50;21.00;;;;;21.14;53.20;101618.69;5027420;28;45361;-86
2021/09/03 01:10:54;;;;;;;;;19.75;19.25;;;;;21.10;53.37;101616.00;5037760;28;45314;-88
2021/09/03 01:13:19;;;;;;;;;19.50;17.75;;;;;21.09;53.45;101606.31;5037283;28;45413;-89
2021/09/03 01:15:45;;;;;;;;;24.00;20.75;;;;;21.09;53.65;101611.59;5037144;28;45366;-89
2021/09/03 01:18:11;;;;;;;;;23.50;21.00;;;;;;;;5038963;28;45548;-85
2021/09/03 01:20:36;;;;;;;;;24.75;22.25;;;;;21.01;53.42;101608.84;5044332;28;45428;-85
2021/09/03 01:23:02;;;;;;;;;22.50;19.50;;;;;21.02;53.58;101610.59;5031227;28;45330;-85
2021/09/03 01:25:28;;;;;;;;;20.50;18.75;;;;;21.02;53.58;101607.97;5033324;28;45662;-85
2021/09/03 01:27:53;;;;;;;;;21.75;18.75;;;;;20.99;53.91;101614.09;5027308;28;45189;-85
2021/09/03 01:30:19;;;;;;;;;21.75;20.75;;;;;20.97;53.46;101604.38;5034148;28;45966;-85
2021/09/03 01:32:45;;;;;;;;;22.00;20.75;;;;;20.96;53.68;101594.72;5038522;28;45517;-84
2021/09/03 01:35:10;;;;;;;;;21.00;18.25;;;;;20.94;54.01;101599.09;5040456;28;45267;-85
2021/09/03 01:37:36;;;;;;;;;21.00;19.50;;;;;20.90;54.11;101603.41;5040409;28;45326;-84
2021/09/03 01:40:03;;;;;;;;;20.00;17.25;;;;;20.91;53.78;101605.16;5041690;28;45524;-89
2021/09/03 01:42:29;;;;;;;;;25.75;22.25;;;;;20.88;54.09;101605.16;5030731;28;45831;-87
2021/09/03 01:44:54;;;;;;;;;21.75;19.50;;;;;20.85;54.53;101594.56;5019393;28;45869;-89
2021/09/03 01:47:20;;;;;;;;;21.50;20.75;;;;;20.84;54.37;101591.03;5024578;28;45350;-89
2021/09/03 01:49:46;;;;;;;;;26.50;21.75;;;;;20.81;54.64;101592.75;5037458;28;46109;-88
2021/09/03 01:52:11;;;;;;;;;23.75;22.25;;;;;20.78;53.93;101588.31;5021706;28;45380;-88
2021/09/03 01:54:37;;;;;;;;;30.25;22.75;;;;;20.77;54.46;101591.81;5036205;28;45401;-88
2021/09/03 01:57:03;;;;;;;;;20.50;20.00;;;;;20.72;54.60;101588.22;5035387;28;45223;-88
2021/09/03 01:59:28;;;;;;;;;19.25;19.25;;;;;20.71;54.49;101591.69;5030171;28;46033;-88
2021/09/03 02:01:54;;;;;;;;;27.50;21.00;;;;;20.70;54.07;101596.06;5038626;28;45177;-87
2021/09/03 02:04:20;;;;;;;;;21.00;20.00;;;;;20.71;54.46;101592.56;5023063;28;45444;-88
2021/09/03 02:06:45;;;;;;;;;25.00;23.00;;;;;20.71;54.84;101600.47;5019385;28;45576;-86
2021/09/03 02:09:11;;;;;;;;;23.25;21.50;;;;;20.71;54.18;101599.59;5035051;28;45666;-86
2021/09/03 02:11:36;;;;;;;;;22.75;20.75;;;;;20.72;54.65;101596.97;5047016;28;45315;-85
2021/09/03 02:14:03;;;;;;;;;19.25;16.75;;;;;20.69;54.40;101594.28;5039055;28;45368;-85
2021/09/03 02:16:29;;;;;;;;;26.25;23.50;;;;;20.69;54.11;101594.28;5037695;28;45328;-88
2021/09/03 02:18:54;;;;;;;;;28.00;23.00;;;;;20.68;54.02;101591.66;5019237;28;46184;-88
2021/09/03 02:21:20;;;;;;;;;27.00;22.25;;;;;20.65;54.39;101596.84;5035189;28;45272;-87
2021/09/03 02:23:46;;;;;;;;;24.25;21.25;;;;;20.65;54.92;101588.97;5023149;28;45425;-88
2021/09/03 02:26:12;;;;;;;;;24.25;19.75;;;;;20.65;54.84;101591.59;5019972;28;45307;-89
2021/09/03 02:28:39;;;;;;;;;24.00;20.25;;;;;20.63;54.65;101581.06;5020056;28;45490;-89
2021/09/03 02:31:05;;;;;;;;;23.75;20.00;;;;;20.60;54.38;101577.50;5021565;28;45353;-89
2021/09/03 02:33:30;;;;;;;;;23.00;20.25;;;;;20.61;54.54;101577.50;5020278;28;45355;-89
2021/09/03 02:35:56;;;;;;;;;26.00;23.50;;;;;20.59;54.92;101576.59;5018382;28;45603;-88
2021/09/03 02:38:21;;;;;;;;;24.50;21.25;;;;;20.54;54.35;101579.16;5047868;28;46549;-88
2021/09/03 02:40:47;;;;;;;;;23.75;22.25;;;;;20.52;54.40;101585.25;5031707;28;45430;-88
2021/09/03 02:43:13;;;;;;;;;25.25;22.75;;;;;20.50;54.60;101581.72;5019772;28;45357;-88
2021/09/03 02:45:38;;;;;;;;;24.75;21.75;;;;;20.50;54.96;101584.34;5018840;28;45559;-87
2021/09/03 02:48:04;;;;;;;;;22.50;20.25;;;;;20.46;54.92;101578.16;5033496;28;47638;-88
2021/09/03 02:50:30;;;;;;;;;21.00;19.50;;;;;20.43;54.90;101570.19;5025763;28;45476;-86
2021/09/03 02:52:58;;;;;;;;;23.75;20.50;;;;;20.41;54.81;101574.53;5025621;28;45378;-85
2021/09/03 02:55:27;;;;;;;;;23.50;21.00;;;;;20.39;54.93;101578.91;5018016;28;45514;-87
2021/09/03 02:57:53;;;;;;;;;26.25;25.75;;;;;20.35;54.96;101570.09;5027845;28;45394;-87
2021/09/03 03:00:19;;;;;;;;;24.50;23.25;;;;;20.29;55.59;101575.25;5027659;28;45472;-88
2021/09/03 03:02:45;;;;;;;;;28.50;22.75;;;;;20.23;55.37;101577.78;5036151;28;45344;-86
2021/09/03 03:05:11;;;;;;;;;25.00;21.75;;;;;20.22;55.16;101576.00;5045905;28;45427;-84
2021/09/03 03:07:37;;;;;;;;;25.00;24.25;;;;;20.21;55.65;101571.59;5037823;28;46603;-86
2021/09/03 03:10:05;;;;;;;;;22.50;19.25;;;;;20.17;55.38;101570.66;5038238;28;45508;-85
2021/09/03 03:12:30;;;;;;;;;25.00;20.75;;;;;20.13;55.59;101579.34;5037906;28;45402;-85
2021/09/03 03:14:56;;;;;;;;;22.75;21.50;;;;;20.10;55.86;101569.69;5040027;28;45501;-85
2021/09/03 03:17:21;;;;;;;;;26.25;21.25;;;;;20.12;55.31;101568.81;5024599;28;46209;-86
2021/09/03 03:19:47;;;;;;;;;26.50;23.00;;;;;20.09;55.40;101564.38;5025114;28;45382;-88
2021/09/03 03:22:13;;;;;;;;;27.50;22.75;;;;;20.08;55.53;101565.25;5024798;28;45334;-88
2021/09/03 03:24:39;;;;;;;;;25.00;19.50;;;;;20.03;56.02;101562.50;5033456;28;45484;-89
2021/09/03 03:27:05;;;;;;;;;21.25;20.50;;;;;19.95;55.99;101567.66;5033354;28;45438;-90
2021/09/03 03:29:30;;;;;;;;;26.00;21.25;;;;;19.90;56.19;101569.31;5016711;28;45347;-89
2021/09/03 03:31:56;;;;;;;;;29.50;26.00;;;;;19.88;55.92;101557.88;5017470;28;45387;-90
2021/09/03 03:34:21;;;;;;;;;25.25;24.50;;;;;19.89;55.89;101564.91;5017373;28;45856;-89
2021/09/03 03:36:47;;;;;;;;;25.25;23.50;;;;;19.84;56.09;101563.00;5029089;28;45479;-89
2021/09/03 03:39:13;;;;;;;;;25.50;24.75;;;;;19.79;56.73;101560.31;5017445;28;45533;-88
2021/09/03 03:41:39;;;;;;;;;30.00;26.50;;;;;19.74;56.17;101565.47;5018621;28;45256;-89
2021/09/03 03:44:05;;;;;;;;;24.50;23.00;;;;;19.68;56.72;101560.13;5019145;28;45230;-89
2021/09/03 03:46:31;;;;;;;;;29.00;21.00;;;;;19.64;56.89;101553.91;5022604;28;45314;-91
2021/09/03 03:48:57;;;;;;;;;28.50;24.00;;;;;19.62;56.46;101555.63;5021531;28;45668;-89
2021/09/03 03:51:23;;;;;;;;;26.75;24.50;;;;;19.59;57.08;101544.19;5023344;28;45318;-86
2021/09/03 03:53:49;;;;;;;;;27.00;26.50;;;;;19.56;56.96;101542.34;5029639;28;45329;-87
2021/09/03 03:56:14;;;;;;;;;31.25;27.25;;;;;19.54;56.60;101541.47;5033210;28;48135;-88
2021/09/03 03:58:40;;;;;;;;;25.25;25.25;;;;;19.54;57.08;101544.09;5016616;28;45440;-87
2021/09/03 04:01:06;;;;;;;;;33.75;25.25;;;;;19.52;56.73;101540.53;5017399;28;45389;-88
2021/09/03 04:03:31;;;;;;;;;29.75;24.50;;;;;19.53;57.53;101544.94;5016626;28;45592;-88
2021/09/03 04:05:57;;;;;;;;;25.00;25.00;;;;;19.56;56.98;101541.50;5016859;28;45366;-88
2021/09/03 04:08:23;;;;;;;;;28.00;26.75;;;;;19.59;56.86;101549.44;5017076;28;45447;-88
2021/09/03 04:10:48;;;;;;;;;27.25;24.50;;;;;19.60;56.88;101557.34;5017824;28;45323;-88
2021/09/03 04:13:14;;;;;;;;;27.25;25.25;;;;;19.57;56.71;101544.13;5017627;28;45581;-88
2021/09/03 04:15:40;;;;;;;;;28.75;25.25;;;;;19.55;56.76;101552.84;5025083;28;45948;-87
2021/09/03 04:18:05;;;;;;;;;29.50;26.00;;;;;19.50;56.86;101552.75;5031233;28;45330;-87
2021/09/03 04:20:31;;;;;;;;;31.50;28.75;;;;;19.45;57.05;101551.75;5036243;28;45279;-86
2021/09/03 04:22:56;;;;;;;;;32.75;25.00;;;;;19.42;57.43;101544.72;5036663;28;45494;-87
2021/09/03 04:25:22;;;;;;;;;26.25;24.50;;;;;19.42;57.58;101538.59;5030031;28;46128;-86
2021/09/03 04:27:48;;;;;;;;;30.25;28.50;;;;;19.40;57.25;101549.03;5015131;28;45435;-87
2021/09/03 04:30:14;;;;;;;;;27.25;26.25;;;;;19.37;57.67;101555.97;5028375;28;45615;-87
2021/09/03 04:32:39;;;;;;;;;28.50;25.25;;;;;19.37;57.74;101553.34;5045641;28;45553;-86
2021/09/03 04:35:06;;;;;;;;;28.50;25.75;;;;;19.35;57.78;101555.97;5041844;28;45487;-89
2021/09/03 04:37:37;;;;;;;;;24.50;23.25;;;;;19.33;57.33;101552.41;5027322;28;45886;-88
2021/09/03 04:40:03;;;;;;;;;30.00;27.50;;;;;19.31;57.60;101565.53;5015081;28;45341;-85
2021/09/03 04:42:29;;;;;;;;;30.25;27.00;;;;;19.29;57.59;101561.06;5021966;28;45512;-87
2021/09/03 04:44:54;;;;;;;;;30.25;27.25;;;;;19.28;57.43;101564.53;5040582;28;45391;-89
2021/09/03 04:47:20;;;;;;;;;33.75;29.25;;;;;19.25;58.06;101559.25;5036229;28;45381;-84
2021/09/03 04:49:46;;;;;;;;;26.25;23.00;;;;;19.24;57.43;101560.97;5069583;28;45496;-83
2021/09/03 04:52:11;;;;;;;;;37.75;31.50;;;;;19.26;57.41;101550.53;5043287;28;45539;-84
2021/09/03 04:54:37;;;;;;;;;34.00;29.75;;;;;19.26;57.49;101558.41;5019596;28;45404;-83
2021/09/03 04:57:02;;;;;;;;;35.75;31.25;;;;;19.26;57.93;101553.16;5032437;28;45406;-83
2021/09/03 04:59:28;;;;;;;;;31.25;31.00;;;;;19.27;57.53;101549.69;5053650;28;45207;-86
2021/09/03 05:01:54;;;;;;;;;37.00;31.00;;;;;19.26;57.65;101548.78;5068418;28;45556;-87
2021/09/03 05:04:19;;;;;;;;;39.75;33.25;;;;;19.24;57.30;101553.09;5029459;28;45524;-86
2021/09/03 05:06:45;;;;;;;;;39.75;34.25;;;;;19.24;57.96;101554.84;5027087;28;45244;-87
2021/09/03 05:09:10;;;;;;;;;35.75;30.75;;;;;19.21;57.67;101549.53;5027039;28;45347;-89
2021/09/03 05:11:36;;;;;;;;;34.25;27.50;;;;;19.18;57.83;101548.59;5024421;28;45567;-87
2021/09/03 05:14:01;;;;;;;;;34.00;32.25;;;;;19.18;57.58;101550.34;5021783;28;45651;-86
2021/09/03 05:16:27;;;;;;;;;35.00;30.50;;;;;19.18;57.53;101547.72;5037285;28;45400;-89
2021/09/03 05:18:54;;;;;;;;;43.25;32.75;;;;;19.15;57.72;101545.03;5034174;28;45663;-87
2021/09/03 05:21:20;;;;;;;;;42.50;34.00;;;;;19.17;57.72;101552.09;5038075;28;45472;-87
2021/09/03 05:23:45;;;;;;;;;38.00;32.50;;;;;19.17;57.92;101544.19;5028886;28;45925;-89
2021/09/03 05:26:11;;;;;;;;;43.50;33.50;;;;;19.17;57.86;101554.72;5017540;28;45545;-85
2021/09/03 05:28:38;;;;;;;;;42.50;34.50;;;;;19.17;58.09;101552.09;5020181;28;45511;-88
2021/09/03 05:31:04;;;;;;;;;36.75;31.00;;;;;19.18;57.70;101552.97;5039258;28;45531;-88
2021/09/03 05:33:29;;;;;;;;;43.25;35.25;;;;;19.14;57.86;101559.00;5028825;28;46117;-89
2021/09/03 05:35:55;;;;;;;;;42.75;35.50;;;;;19.10;57.79;101551.94;5018895;28;45212;-89
2021/09/03 05:38:21;;;;;;;;;38.50;34.25;;;;;19.09;57.82;101555.41;5029299;28;45221;-89
2021/09/03 05:40:47;;;;;;;;;44.25;35.25;;;;;19.08;57.64;101551.88;5027168;28;45387;-88
2021/09/03 05:43:12;;;;;;;;;37.75;32.25;;;;;19.06;57.67;101555.34;5044443;28;45377;-91
2021/09/03 05:45:38;;;;;;;;;38.50;34.00;;;;;19.09;58.22;101551.03;5034711;28;45388;-88
2021/09/03 05:48:04;;;;;;;;;46.50;33.50;;;;;19.14;58.13;101543.25;5032010;28;45409;-90
2021/09/03 05:50:30;;;;;;;;;40.00;33.75;;;;;19.16;57.84;101554.69;5021500;28;45839;-90
2021/09/03 05:52:55;;;;;;;;;47.25;35.75;;;;;19.16;57.94;101550.34;5022414;28;45485;-87
2021/09/03 05:55:21;;;;;;;;;36.75;31.75;;;;;19.17;57.88;101556.47;5030398;28;45328;-85
2021/09/03 05:57:48;;;;;;;;;41.00;34.25;;;;;19.17;58.24;101557.34;5036542;28;45208;-81
2021/09/03 06:00:14;;;;;;;;;37.50;32.75;;;;;19.16;58.02;101552.97;5035279;28;45321;-82
2021/09/03 06:02:40;;;;;;;;;41.75;33.25;;;;;19.18;58.08;101556.47;5023641;28;45552;-92
2021/09/03 06:05:06;;;;;;;;;40.50;34.75;;;;;19.24;57.83;101549.59;5030294;28;45788;-91
2021/09/03 06:07:35;;;;;;;;;39.25;33.75;;;;;19.29;57.77;101551.47;5051232;28;45402;-90
2021/09/03 06:10:01;;;;;;;;;51.00;40.50;;;;;19.30;57.81;101552.34;5031259;28;45442;-91
2021/09/03 06:12:27;;;;;;;;;36.75;32.75;;;;;19.31;58.15;101552.41;5039520;28;46899;-91
2021/09/03 06:14:53;;;;;;;;;35.00;32.00;;;;;19.34;57.99;101552.44;5027901;28;45458;-86
2021/09/03 06:17:18;;;;;;;;;36.25;32.50;;;;;19.34;58.13;101556.81;5024499;28;45336;-86
2021/09/03 06:19:44;;;;;;;;;28.75;23.50;;;;;19.30;57.91;101550.63;5034077;28;45299;-85
2021/09/03 06:22:10;;;;;;;;;38.75;33.50;;;;;19.29;57.66;101548.84;5034675;28;45488;-82
2021/09/03 06:24:35;;;;;;;;;38.25;32.25;;;;;19.30;57.70;101553.25;5037536;28;45381;-80
2021/09/03 06:27:09;;;;;;;;;33.50;30.75;;;;;19.33;58.10;101558.53;5028578;28;45477;-82
2021/09/03 06:29:41;;;;;;;;;37.00;31.75;;;;;19.37;57.91;101554.25;5018469;28;45470;-83
2021/09/03 06:32:19;;;;;;;;;36.25;32.25;;;;;19.43;57.72;101551.75;5017091;28;45346;-81
2021/09/03 06:34:48;;;;;;;;;36.50;31.75;;;;;19.46;57.67;101557.06;5029131;28;45348;-83
2021/09/03 06:37:14;;;;;;;;;37.00;31.75;;;;;19.49;57.28;101557.09;5038661;28;45549;-86
2021/09/03 06:39:40;;;;;;;;;34.25;31.00;;;;;19.52;56.92;101553.69;5028017;28;45663;-80
2021/09/03 06:42:07;;;;;;;;;37.50;30.50;;;;;19.56;57.01;101554.63;5033985;28;45520;-83
2021/09/03 06:44:34;;;;;;;;;37.50;26.50;;;;;19.60;56.48;101549.44;5037637;28;45286;-85
2021/09/03 06:47:00;;;;;;;;;35.00;31.50;;;;;19.64;56.36;101540.78;5043449;28;45370;-82
2021/09/03 06:49:25;;;;;;;;;36.00;31.75;;;;;19.66;56.16;101551.31;5045915;28;45185;-83
2021/09/03 06:51:52;;;;;;;;;33.00;28.50;;;;;19.68;56.34;101546.06;5041231;28;45342;-82
2021/09/03 06:54:18;;;;;;;;;33.25;30.25;;;;;19.67;56.22;101549.56;5037842;28;45470;-83
2021/09/03 06:56:44;;;;;;;;;31.00;28.25;;;;;19.68;56.03;101551.34;5038155;28;45272;-84
2021/09/03 06:59:09;;;;;;;;;40.25;34.00;;;;;19.73;55.75;101550.56;5037881;28;45511;-81
2021/09/03 07:01:35;;;;;;;;;30.00;29.00;;;;;19.75;56.09;101548.84;5036878;28;45357;-82
2021/09/03 07:04:01;;;;;;;;;32.75;31.00;;;;;19.74;55.87;101554.97;5036666;28;45488;-80
2021/09/03 07:06:27;;;;;;;;;31.75;26.00;;;;;19.72;55.80;101554.03;5037269;28;45437;-82
2021/09/03 07:08:53;;;;;;;;;37.75;30.50;;;;;19.74;55.86;101560.22;5038459;28;45326;-80
2021/09/03 07:11:18;;;;;;;;;36.50;30.75;;;;;19.75;56.15;101555.88;5037671;28;45390;-81
2021/09/03 07:13:44;;;;;;;;;30.75;28.50;;;;;19.76;56.17;101560.28;5036730;28;45386;-80
2021/09/03 07:16:10;;;;;;;;;34.75;28.00;;;;;19.75;55.65;101556.75;5036492;28;45286;-81
2021/09/03 07:18:35;;;;;;;;;45.75;32.75;;;;;19.75;56.17;101562.00;5036684;28;45322;-81
2021/09/03 07:21:01;;;;;;;;;34.50;25.00;;;;;19.77;56.09;101557.66;5036444;28;46108;-81
2021/09/03 07:23:27;;;;;;;;;32.50;28.00;;;;;19.78;55.90;101561.16;5036245;28;45499;-81
2021/09/03 07:25:53;;;;;;;;;33.00;26.75;;;;;19.76;55.56;101558.50;5028190;28;45340;-82
2021/09/03 07:28:19;;;;;;;;;28.50;27.50;;;;;19.75;55.76;101555.88;5031138;28;45579;-80
2021/09/03 07:30:45;;;;;;;;;34.25;30.25;;;;;19.77;55.58;101562.91;5031326;28;45884;-81
2021/09/03 07:33:10;;;;;;;;;37.00;30.25;;;;;19.80;55.38;101556.81;5034569;28;45209;-83
2021/09/03 07:35:36;;;;;;;;;36.00;32.00;;;;;19.84;55.53;101563.00;5032417;28;45338;-80
2021/09/03 07:38:02;;;;;;;;;37.50;31.25;;;;;19.86;55.74;101545.56;5036696;28;45377;-81
2021/09/03 07:40:28;;;;;;;;;29.75;28.25;;;;;19.87;55.62;101555.22;5033170;28;45468;-83
2021/09/03 07:42:55;;;;;;;;;29.75;24.50;;;;;19.92;55.96;101558.84;5018010;28;45505;-81
2021/09/03 07:45:21;;;;;;;;;31.25;28.50;;;;;19.95;55.67;101556.25;5016737;28;45272;-80
2021/09/03 07:47:47;;;;;;;;;32.75;30.25;;;;;19.95;55.15;101559.78;5021057;28;45596;-81
2021/09/03 07:50:17;;;;;;;;;34.25;26.50;;;;;19.97;55.80;101549.28;5015799;28;46144;-81
2021/09/03 07:52:43;;;;;;;;;34.00;30.50;;;;;19.99;55.52;101554.56;5018282;28;45882;-82
2021/09/03 07:55:08;;;;;;;;;32.25;29.50;;;;;20.00;55.28;101562.50;5016422;28;45342;-82
2021/09/03 07:57:34;;;;;;;;;38.75;31.50;;;;;19.99;55.19;101544.94;5016346;28;45322;-82
2021/09/03 08:00:00;;;;;;;;;34.25;30.75;;;;;20.00;55.52;101556.31;5017854;28;45994;-81
2021/09/03 08:02:25;;;;;;;;;29.75;28.25;;;;;20.02;56.02;101547.63;5021248;28;45390;-81
2021/09/03 08:04:53;;;;;;;;;36.25;31.50;;;;;20.09;55.92;101554.75;5046322;28;45410;-83
2021/09/03 08:07:18;;;;;;;;;32.25;28.50;;;;;20.13;55.64;101558.31;5040315;28;45583;-85
2021/09/03 08:09:45;;;;;;;;;30.75;27.00;;;;;20.17;55.82;101549.63;5036844;28;45351;-85
2021/09/03 08:12:11;;;;;;;;;35.50;29.50;;;;;20.22;55.71;101554.97;5036834;28;45253;-84
2021/09/03 08:14:37;;;;;;;;;31.25;27.75;;;;;20.25;55.58;101555.91;5029315;28;45461;-84
2021/09/03 08:17:03;;;;;;;;;29.75;28.00;;;;;20.29;55.18;101558.59;5031881;28;45217;-81
2021/09/03 08:19:29;;;;;;;;;30.75;28.75;;;;;20.30;55.25;101558.59;5023872;28;45653;-80
2021/09/03 08:21:55;;;;;;;;;33.00;27.75;;;;;20.31;54.73;101548.97;5019032;28;45232;-81
2021/09/03 08:24:21;;;;;;;;;30.75;29.00;;;;;20.32;54.99;101562.16;5026954;28;45278;-81
2021/09/03 08:26:47;;;;;;;;;31.75;29.25;;;;;20.36;55.42;101553.44;5023470;28;45343;-81
2021/09/03 08:29:13;;;;;;;;;29.50;27.50;;;;;20.39;54.79;101547.34;5024934;28;46043;-82
2021/09/03 08:31:39;;;;;;;;;30.50;27.25;;;;;20.42;54.64;101556.19;5024530;28;45502;-81
2021/09/03 08:34:06;;;;;;;;;33.00;30.25;;;;;20.45;55.12;101547.44;5026534;28;45974;-84
2021/09/03 08:36:32;;;;;;;;;35.75;32.00;;;;;20.50;54.85;101547.50;5023288;28;45482;-85
2021/09/03 08:38:58;;;;;;;;;29.75;25.50;;;;;20.54;54.61;101544.09;5020792;28;45315;-83
2021/09/03 08:41:24;;;;;;;;;21.25;20.00;;;;;20.57;54.69;101538.88;5029463;28;46074;-82
2021/09/03 08:43:56;;;;;;;;;30.00;28.50;;;;;20.57;54.50;101542.38;5039309;28;45295;-82
2021/09/03 08:46:23;;;;;;;;;29.00;24.25;;;;;20.58;54.44;101548.50;5019364;28;45465;-84
2021/09/03 08:48:49;;;;;;;;;25.75;22.25;;;;;20.61;54.95;101545.94;5018041;28;46161;-82
2021/09/03 08:51:15;;;;;;;;;26.75;21.50;;;;;20.64;54.52;101542.44;5018108;28;45233;-82
2021/09/03 08:53:41;;;;;;;;;28.50;25.75;;;;;20.65;54.97;101533.69;5018858;28;45336;-81
2021/09/03 08:56:06;;;;;;;;;31.75;31.00;;;;;20.69;54.95;101541.66;5034063;28;45295;-82
2021/09/03 08:58:32;;;;;;;;;29.50;28.50;;;;;20.68;54.65;101524.09;5034272;28;45538;-81
2021/09/03 09:01:10;;;;;;;;;31.75;29.25;;;;;20.70;54.22;101535.53;5017019;28;45380;-81
2021/09/03 09:03:42;;;;;;;;;29.75;28.00;;;;;20.75;54.25;101537.41;5019558;28;45449;-83
2021/09/03 09:06:10;;;;;;;;;27.25;23.00;;;;;20.79;54.78;101533.94;5028743;28;45366;-83
2021/09/03 09:08:38;;;;;;;;;29.75;27.00;;;;;20.83;54.83;101530.50;5038042;28;45367;-82
2021/09/03 09:11:06;;;;;;;;;29.50;24.50;;;;;20.87;54.51;101534.94;5039109;28;45799;-84
2021/09/03 09:13:40;;;;;;;;;30.25;27.25;;;;;20.93;54.35;101526.25;5039568;28;45549;-84
2021/09/03 09:16:15;;;;;;;;;30.50;25.25;;;;;20.98;54.37;101528.06;5042341;28;45254;-81
2021/09/03 09:18:44;;;;;;;;;25.25;23.25;;;;;21.02;54.32;101518.47;5040796;28;47496;-80
2021/09/03 09:21:25;;;;;;;;;28.25;27.00;;;;;21.09;54.05;101514.16;5039343;28;45861;-83
2021/09/03 09:23:55;;;;;;;;;24.00;20.75;;;;;21.13;53.58;101515.94;5042198;28;45498;-83
2021/09/03 09:26:27;;;;;;;;;25.25;23.00;;;;;21.19;53.70;101516.91;5048402;28;45453;-80
2021/09/03 09:28:54;;;;;;;;;20.50;20.50;;;;;21.22;54.03;101509.94;5044901;28;46194;-83
2021/09/03 09:31:28;;;;;;;;;29.25;21.50;;;;;21.27;53.58;101517.00;5041879;28;45924;-85
2021/09/03 09:33:55;;;;;;;;;25.50;22.50;;;;;21.30;53.15;101516.16;4989713;28;1447853;-82
2021/09/03 09:36:20;;;;;;;;;24.75;21.50;;;;;21.35;53.75;101517.09;5064892;28;45706;-87
2021/09/03 09:38:46;;;;;;;;;25.00;23.00;;;;;21.34;53.34;101505.66;5041709;28;46333;-85
2021/09/03 09:41:13;;;;;;;;;21.50;20.00;;;;;21.40;53.13;101507.50;5029205;28;45723;-82
2021/09/03 09:43:43;;;;;;;;;24.75;21.00;;;;;21.46;53.03;101510.22;5021868;28;45309;-85
2021/09/03 09:46:21;;;;;;;;;20.50;19.00;;;;;21.49;53.58;101506.72;5021289;28;46131;-83
2021/09/03 09:48:50;;;;;;;;;21.00;20.00;;;;;21.57;52.61;101510.31;5040699;28;46549;-84
2021/09/03 09:51:29;;;;;;;;;22.00;20.75;;;;;21.62;53.10;101506.00;5023951;28;45684;-89
2021/09/03 09:54:09;;;;;;;;;20.75;19.25;;;;;21.69;52.77;101506.06;5022497;28;45449;-82
2021/09/03 09:56:40;;;;;;;;;19.25;18.00;;;;;21.74;52.74;101505.25;5025021;28;45591;-82
2021/09/03 09:59:08;;;;;;;;;23.25;20.50;;;;;21.78;52.71;101495.59;5025456;28;45350;-81
2021/09/03 10:01:36;;;;;;;;;23.50;19.25;;;;;21.83;52.31;101499.19;5019314;28;45484;-82
2021/09/03 10:04:11;;;;;;;;;20.50;17.00;;;;;21.88;52.19;101493.94;5018119;28;45712;-82
2021/09/03 10:06:38;;;;;;;;;19.00;19.00;;;;;21.93;51.67;101500.13;5018538;28;45256;-80
2021/09/03 10:09:08;;;;;;;;;26.50;22.50;;;;;21.97;51.99;101493.16;5021695;28;46067;-82
2021/09/03 10:11:37;;;;;;;;;19.50;19.50;;;;;22.00;52.25;101499.34;5018778;28;45844;-82
2021/09/03 10:14:05;;;;;;;;;20.25;18.50;;;;;22.07;51.94;101489.72;5021160;28;45538;-83
2021/09/03 10:16:31;;;;;;;;;19.25;16.75;;;;;22.10;51.89;101487.09;5037184;28;45647;-86
2021/09/03 10:18:59;;;;;;;;;16.75;16.00;;;;;22.14;51.53;101480.09;5039096;28;45443;-84
2021/09/03 10:21:27;;;;;;;;;20.25;18.75;;;;;22.18;51.36;101488.06;5042569;28;45699;-84
2021/09/03 10:24:08;;;;;;;;;16.50;15.50;;;;;22.23;51.48;101467.84;5037299;28;45501;-83
2021/09/03 10:26:38;;;;;;;;;21.50;17.75;;;;;22.28;51.35;101478.44;5022811;28;45280;-85
2021/09/03 10:29:40;;;;;;;;;20.75;19.00;;;;;22.32;51.27;101474.94;5027860;28;46592;-84
2021/09/03 10:32:10;;;;;;;;;18.75;17.00;;;;;22.37;51.43;101473.22;5022514;28;45434;-86
2021/09/03 10:34:43;;;;;;;;;23.75;18.25;;;;;22.42;50.94;101474.16;5030578;28;45375;-86
2021/09/03 10:37:14;;;;;;;;;19.25;18.00;;;;;22.48;51.06;101472.44;5040066;28;45441;-86
2021/09/03 10:39:57;;;;;;;;;13.50;12.75;;;;;22.55;51.25;101476.88;5040926;28;46166;-84
2021/09/03 10:42:35;;;;;;;;;22.50;18.25;;;;;22.61;50.42;101470.75;5042519;28;45356;-85
2021/09/03 10:45:06;;;;;;;;;17.00;16.50;;;;;22.64;50.61;101474.28;5039566;28;45905;-84
2021/09/03 10:47:46;;;;;;;;;15.75;14.75;;;;;22.70;50.07;101470.81;5044923;28;45426;-85
2021/09/03 10:50:20;;;;;;;;;17.75;17.25;;;;;22.76;50.13;101468.19;5045671;28;45259;-86
2021/09/03 10:53:04;;;;;;;;;13.75;13.25;;;;;22.82;50.26;101464.69;5039810;28;45649;-85
2021/09/03 10:56:07;;;;;;;;;19.50;19.25;;;;;22.88;50.23;101468.25;5035934;28;45309;-85
2021/09/03 10:58:48;;;;;;;;;18.75;16.00;;;;;22.91;50.11;101462.09;5037409;28;45747;-84
2021/09/03 11:01:26;;;;;;;;;21.75;20.25;;;;;22.94;50.19;101458.59;5041432;28;45260;-86
2021/09/03 11:04:00;;;;;;;;;20.25;15.75;;;;;23.00;50.11;101453.31;5059694;28;45363;-85
2021/09/03 11:06:30;;;;;;;;;18.00;13.75;;;;;23.04;50.18;101453.34;5042514;28;45282;-85
2021/09/03 11:09:21;;;;;;;;;19.75;17.25;;;;;23.09;49.88;101447.19;5036385;28;45573;-85